createdAt,value
2022-10-06T00:01:14.467Z,4.55
2022-10-06T00:03:44.108Z,4.18
2022-10-06T00:06:14.609Z,4.47
2022-10-06T00:08:44.310Z,4.07
2022-10-06T00:11:15.049Z,4.32
2022-10-06T00:13:43.576Z,4.45
2022-10-06T00:16:17.558Z,4.18
2022-10-06T00:18:46.729Z,4.35
2022-10-06T00:21:15.412Z,4.75
2022-10-06T00:23:43.943Z,5.43
2022-10-06T00:26:16.828Z,4.90
2022-10-06T00:28:48.297Z,4.67
2022-10-06T00:31:19.569Z,5.65
2022-10-06T00:33:49.984Z,6.15
2022-10-06T00:36:18.605Z,5.15
2022-10-06T00:38:47.157Z,4.80
2022-10-06T00:41:18.211Z,5.07
2022-10-06T00:43:52.112Z,4.90
2022-10-06T00:46:33.816Z,4.53
2022-10-06T00:49:07.568Z,4.38
2022-10-06T00:51:40.357Z,4.57
2022-10-06T00:54:09.140Z,4.57
2022-10-06T00:56:40.212Z,4.32
2022-10-06T00:59:11.367Z,4.70
2022-10-06T01:01:43.984Z,4.18
2022-10-06T01:04:17.941Z,4.15
2022-10-06T01:06:50.193Z,4.30
2022-10-06T01:09:19.808Z,4.30
2022-10-06T01:11:51.824Z,4.30
2022-10-06T01:14:22.598Z,4.28
2022-10-06T01:16:57.449Z,4.28
2022-10-06T01:19:38.530Z,4.47
2022-10-06T01:22:08.765Z,3.92
2022-10-06T01:24:38.796Z,4.47
2022-10-06T01:27:11.388Z,3.97
2022-10-06T01:29:40.367Z,3.95
2022-10-06T01:32:09.308Z,3.75
2022-10-06T01:34:38.111Z,4.10
2022-10-06T01:37:06.624Z,3.92
2022-10-06T01:39:35.113Z,3.88
2022-10-06T01:42:05.233Z,3.80
2022-10-06T01:44:33.762Z,3.95
2022-10-06T01:47:02.416Z,3.47
2022-10-06T01:49:31.103Z,3.60
2022-10-06T01:51:59.725Z,4.50
2022-10-06T01:54:28.233Z,3.97
2022-10-06T01:56:56.738Z,4.00
2022-10-06T01:59:26.820Z,3.55
2022-10-06T02:01:55.911Z,4.20
2022-10-06T02:04:24.799Z,4.20
2022-10-06T02:06:55.510Z,4.20
2022-10-06T02:09:24.597Z,4.10
2022-10-06T02:11:53.149Z,4.13
2022-10-06T02:14:21.631Z,4.22
2022-10-06T02:16:51.800Z,4.10
2022-10-06T02:19:20.730Z,4.40
2022-10-06T02:21:49.260Z,4.30
2022-10-06T02:24:17.743Z,4.43
2022-10-06T02:26:46.737Z,4.18
2022-10-06T02:29:15.679Z,4.43
2022-10-06T02:31:44.823Z,4.47
2022-10-06T02:34:15.187Z,4.07
2022-10-06T02:36:43.664Z,4.45
2022-10-06T02:39:12.269Z,4.50
2022-10-06T02:41:40.776Z,4.82
2022-10-06T02:44:09.253Z,4.93
2022-10-06T02:46:37.819Z,3.92
2022-10-06T02:49:06.336Z,4.47
2022-10-06T02:51:36.252Z,4.53
2022-10-06T02:54:04.851Z,4.45
2022-10-06T02:56:33.324Z,4.20
2022-10-06T02:59:01.826Z,4.50
2022-10-06T03:01:30.743Z,4.55
2022-10-06T03:03:59.452Z,4.40
2022-10-06T03:06:29.909Z,4.40
2022-10-06T03:09:01.801Z,4.10
2022-10-06T03:11:32.256Z,4.57
2022-10-06T03:14:01.188Z,4.13
2022-10-06T03:16:32.097Z,4.30
2022-10-06T03:19:01.691Z,4.00
2022-10-06T03:21:31.984Z,4.30
2022-10-06T03:24:02.112Z,4.35
2022-10-06T03:26:32.728Z,4.70
2022-10-06T03:29:01.361Z,4.20
2022-10-06T03:31:30.434Z,4.53
2022-10-06T03:33:59.252Z,3.90
2022-10-06T03:36:29.926Z,4.57
2022-10-06T03:38:58.443Z,4.30
2022-10-06T03:41:29.820Z,4.47
2022-10-06T03:44:00.558Z,4.50
2022-10-06T03:46:30.989Z,4.50
2022-10-06T03:49:00.672Z,4.15
2022-10-06T03:51:31.363Z,4.20
2022-10-06T03:54:00.792Z,4.20
2022-10-06T03:56:32.782Z,3.63
2022-10-06T03:59:03.192Z,4.03
2022-10-06T04:01:33.543Z,3.67
2022-10-06T04:04:03.470Z,3.92
2022-10-06T04:06:34.823Z,3.50
2022-10-06T04:09:04.616Z,3.70
2022-10-06T04:11:37.669Z,3.20
2022-10-06T04:14:08.417Z,3.20
2022-10-06T04:16:38.730Z,3.20
2022-10-06T04:19:10.352Z,3.20
2022-10-06T04:21:40.677Z,3.22
2022-10-06T04:24:10.825Z,3.42
2022-10-06T04:26:45.091Z,3.33
2022-10-06T04:31:43.372Z,2.83
2022-10-06T04:34:13.418Z,2.72
2022-10-06T04:36:43.699Z,2.72
2022-10-06T04:39:13.400Z,2.65
2022-10-06T04:41:46.688Z,1.90
2022-10-06T04:44:15.180Z,1.70
2022-10-06T04:46:44.954Z,1.92
2022-10-06T04:49:19.917Z,1.90
2022-10-06T04:51:50.030Z,1.67
2022-10-06T04:54:19.680Z,1.80
2022-10-06T04:56:49.851Z,1.77
2022-10-06T04:59:18.520Z,1.80
2022-10-06T05:01:47.033Z,1.95
2022-10-06T05:04:15.575Z,1.80
2022-10-06T05:06:44.316Z,1.75
2022-10-06T05:09:14.710Z,1.70
2022-10-06T05:11:43.398Z,1.63
2022-10-06T05:14:13.276Z,1.67
2022-10-06T05:16:43.109Z,1.20
2022-10-06T05:19:11.815Z,1.40
2022-10-06T05:21:40.545Z,1.38
2022-10-06T05:24:09.304Z,1.10
2022-10-06T05:26:37.880Z,1.60
2022-10-06T05:29:06.541Z,1.27
2022-10-06T05:31:38.981Z,1.40
2022-10-06T05:34:08.260Z,1.65
2022-10-06T05:36:36.875Z,1.52
2022-10-06T05:39:05.585Z,1.60
2022-10-06T05:41:35.013Z,1.50
2022-10-06T05:44:03.664Z,1.50
2022-10-06T05:46:34.056Z,1.80
2022-10-06T05:49:07.166Z,1.85
2022-10-06T05:51:40.159Z,1.95
2022-10-06T05:54:08.885Z,1.40
2022-10-06T05:56:38.728Z,1.65
2022-10-06T05:59:07.779Z,1.40
2022-10-06T06:01:39.869Z,1.67
2022-10-06T06:04:11.687Z,1.45
2022-10-06T06:06:41.184Z,1.13
2022-10-06T06:09:11.581Z,1.50
2022-10-06T06:11:42.372Z,1.25
2022-10-06T06:14:13.086Z,1.25
2022-10-06T06:16:42.030Z,1.00
2022-10-06T06:19:13.610Z,1.27
2022-10-06T06:21:42.191Z,1.20
2022-10-06T06:24:10.728Z,1.27
2022-10-06T06:26:39.349Z,1.30
2022-10-06T06:29:07.898Z,1.38
2022-10-06T06:31:38.492Z,1.25
2022-10-06T06:34:08.286Z,1.88
2022-10-06T06:36:41.202Z,1.40
2022-10-06T06:39:11.304Z,1.20
2022-10-06T06:41:41.782Z,1.30
2022-10-06T06:44:11.582Z,1.42
2022-10-06T06:46:43.205Z,1.30
2022-10-06T06:49:12.288Z,1.70
2022-10-06T06:51:43.844Z,1.80
2022-10-06T06:54:13.129Z,1.60
2022-10-06T06:56:42.487Z,2.40
2022-10-06T06:59:12.254Z,4.25
2022-10-06T07:01:44.397Z,3.15
2022-10-06T07:04:14.838Z,2.78
2022-10-06T07:06:47.598Z,3.45
2022-10-06T07:09:16.132Z,2.70
2022-10-06T07:11:44.718Z,3.67
2022-10-06T07:14:13.457Z,2.40
2022-10-06T07:16:59.273Z,3.08
2022-10-06T07:19:53.508Z,2.15
2022-10-06T07:22:44.070Z,2.00
2022-10-06T07:25:25.063Z,2.65
2022-10-06T07:27:54.605Z,1.88
2022-10-06T07:30:24.413Z,2.70
2022-10-06T07:32:53.734Z,2.85
2022-10-06T07:35:24.955Z,3.55
2022-10-06T07:37:55.092Z,2.40
2022-10-06T07:40:23.726Z,2.50
2022-10-06T07:42:52.984Z,2.58
2022-10-06T07:45:39.568Z,1.60
2022-10-06T07:48:10.602Z,1.92
2022-10-06T07:50:40.438Z,1.77
2022-10-06T07:53:10.685Z,1.90
2022-10-06T07:55:40.282Z,1.65
2022-10-06T07:58:12.363Z,1.63
2022-10-06T08:00:41.341Z,1.58
2022-10-06T08:03:10.419Z,1.50
2022-10-06T08:05:39.213Z,1.80
2022-10-06T08:08:08.076Z,1.80
2022-10-06T08:10:38.023Z,1.70
2022-10-06T08:13:07.288Z,2.17
2022-10-06T08:15:36.468Z,1.88
2022-10-06T08:18:16.499Z,2.00
2022-10-06T08:20:54.428Z,1.80
2022-10-06T08:23:22.930Z,2.35
2022-10-06T08:25:54.384Z,1.80
2022-10-06T08:28:24.508Z,2.20
2022-10-06T08:30:55.575Z,1.63
2022-10-06T08:33:24.168Z,1.90
2022-10-06T08:35:52.747Z,2.17
2022-10-06T08:38:21.918Z,1.52
2022-10-06T08:40:52.055Z,1.70
2022-10-06T08:43:24.966Z,1.80
2022-10-06T08:46:00.336Z,1.85
2022-10-06T08:48:38.730Z,1.90
2022-10-06T08:51:19.783Z,1.92
2022-10-06T08:53:59.567Z,2.05
2022-10-06T08:56:34.947Z,1.70
2022-10-06T08:59:05.345Z,1.70
2022-10-06T09:01:42.113Z,2.03
2022-10-06T09:04:17.133Z,2.08
2022-10-06T09:06:51.380Z,2.20
2022-10-06T09:12:04.911Z,2.10
2022-10-06T09:14:39.171Z,1.77
2022-10-06T09:19:47.395Z,1.88
2022-10-06T09:22:20.780Z,1.77
2022-10-06T09:24:55.158Z,1.77
2022-10-06T09:27:32.458Z,2.05
2022-10-06T09:30:04.560Z,2.30
2022-10-06T09:32:34.950Z,1.73
2022-10-06T09:35:17.745Z,2.17
2022-10-06T09:37:57.732Z,1.63
2022-10-06T09:40:40.316Z,2.13
2022-10-06T09:43:21.546Z,2.05
2022-10-06T09:45:51.671Z,2.22
2022-10-06T09:48:24.965Z,1.98
2022-10-06T09:51:09.362Z,2.42
2022-10-06T09:53:39.695Z,2.85
2022-10-06T09:56:15.758Z,2.53
2022-10-06T09:58:57.288Z,2.45
2022-10-06T10:01:28.290Z,3.03
2022-10-06T10:04:20.923Z,3.47
2022-10-06T10:06:49.407Z,2.03
2022-10-06T10:09:26.103Z,2.42
2022-10-06T10:12:31.401Z,2.28
2022-10-06T10:15:04.852Z,2.20
2022-10-06T10:17:41.191Z,1.77
2022-10-06T10:20:28.324Z,1.77
2022-10-06T10:22:58.795Z,2.33
2022-10-06T10:25:55.850Z,1.85
2022-10-06T10:28:47.090Z,2.83
2022-10-06T10:31:25.960Z,1.88
2022-10-06T10:34:12.380Z,1.90
2022-10-06T10:36:50.954Z,2.03
2022-10-06T10:39:29.816Z,2.00
2022-10-06T10:42:03.031Z,2.40
2022-10-06T10:44:36.329Z,2.17
2022-10-06T10:47:19.364Z,2.07
2022-10-06T10:49:55.019Z,1.63
2022-10-06T10:52:30.594Z,2.00
2022-10-06T10:55:16.225Z,2.42
2022-10-06T10:57:46.993Z,1.75
2022-10-06T11:00:20.933Z,2.28
2022-10-06T11:02:53.757Z,2.70
2022-10-06T11:05:36.863Z,2.60
2022-10-06T11:08:13.269Z,2.22
2022-10-06T11:10:49.279Z,2.22
2022-10-06T11:13:26.811Z,2.10
2022-10-06T11:16:17.049Z,1.75
2022-10-06T11:19:05.499Z,1.75
2022-10-06T11:21:39.774Z,2.00
2022-10-06T11:24:16.688Z,2.10
2022-10-06T11:27:08.644Z,2.33
2022-10-06T11:29:48.258Z,2.28
2022-10-06T11:32:29.128Z,2.55
2022-10-06T11:35:00.108Z,2.55
2022-10-06T11:37:40.237Z,2.75
2022-10-06T11:40:33.500Z,2.08
2022-10-06T11:43:10.634Z,2.92
2022-10-06T11:45:48.090Z,2.75
2022-10-06T11:48:25.195Z,2.20
2022-10-06T11:50:58.179Z,1.90
2022-10-06T11:53:39.183Z,2.42
2022-10-06T11:56:41.412Z,1.92
2022-10-06T11:59:28.513Z,1.90
2022-10-06T12:02:02.141Z,2.25
2022-10-06T12:04:31.367Z,2.65
2022-10-06T12:07:03.678Z,1.95
2022-10-06T12:09:53.493Z,1.70
2022-10-06T12:13:31.773Z,2.10
2022-10-06T12:19:16.998Z,1.80
2022-10-06T12:21:55.017Z,2.08
2022-10-06T12:24:36.981Z,2.25
2022-10-06T12:27:27.411Z,2.25
2022-10-06T12:30:03.974Z,3.58
2022-10-06T12:32:47.544Z,7.30
2022-10-06T12:35:26.062Z,3.07
2022-10-06T12:37:55.435Z,2.20
2022-10-06T12:40:50.577Z,2.50
2022-10-06T12:44:06.015Z,3.70
2022-10-06T12:49:45.267Z,2.15
2022-10-06T12:52:48.341Z,2.00
2022-10-06T12:55:40.320Z,1.73
2022-10-06T12:58:19.940Z,3.53
2022-10-06T13:00:50.112Z,2.53
2022-10-06T13:03:20.632Z,2.67
2022-10-06T13:05:54.544Z,2.10
2022-10-06T13:08:25.277Z,2.00
2022-10-06T13:11:12.446Z,2.20
2022-10-06T13:13:50.337Z,2.45
2022-10-06T13:16:22.297Z,2.42
2022-10-06T13:18:56.321Z,2.13
2022-10-06T13:21:25.569Z,2.08
2022-10-06T13:23:54.195Z,1.90
2022-10-06T13:26:24.535Z,2.05
2022-10-06T13:28:55.971Z,2.05
2022-10-06T13:31:27.091Z,3.00
2022-10-06T13:33:58.419Z,3.72
2022-10-06T13:36:28.830Z,3.90
2022-10-06T13:38:58.186Z,3.08
2022-10-06T13:41:31.675Z,3.00
2022-10-06T13:44:05.928Z,2.20
2022-10-06T13:46:41.239Z,2.55
2022-10-06T13:49:19.100Z,2.53
2022-10-06T13:51:50.878Z,2.15
2022-10-06T13:54:25.866Z,1.95
2022-10-06T13:56:54.521Z,2.28
2022-10-06T13:59:38.644Z,2.60
2022-10-06T14:02:24.568Z,2.90
2022-10-06T14:05:31.808Z,3.15
2022-10-06T14:08:02.303Z,3.58
2022-10-06T14:10:35.571Z,3.70
2022-10-06T14:13:09.048Z,2.77
2022-10-06T14:15:49.420Z,2.60
2022-10-06T14:18:22.127Z,4.82
2022-10-06T14:20:51.818Z,4.13
2022-10-06T14:23:42.344Z,5.70
2022-10-06T14:26:13.672Z,4.25
2022-10-06T14:28:47.415Z,2.58
2022-10-06T14:31:17.699Z,3.22
2022-10-06T14:33:48.120Z,2.55
2022-10-06T14:36:19.659Z,2.40
2022-10-06T14:38:49.863Z,2.20
2022-10-06T14:41:20.528Z,2.90
2022-10-06T14:43:49.427Z,3.20
2022-10-06T14:46:19.618Z,1.95
2022-10-06T14:48:48.397Z,4.07
2022-10-06T14:51:17.743Z,4.03
2022-10-06T14:53:54.927Z,2.38
2022-10-06T14:56:25.796Z,1.98
2022-10-06T14:58:54.966Z,2.20
2022-10-06T15:01:27.216Z,2.20
2022-10-06T15:03:58.955Z,2.70
2022-10-06T15:06:46.012Z,2.05
2022-10-06T15:09:15.766Z,3.08
2022-10-06T15:11:44.998Z,2.40
2022-10-06T15:14:14.180Z,2.03
2022-10-06T15:16:44.766Z,2.50
2022-10-06T15:19:14.480Z,2.20
2022-10-06T15:21:45.430Z,2.28
2022-10-06T15:24:16.368Z,3.15
2022-10-06T15:27:03.670Z,5.25
2022-10-06T15:29:33.635Z,2.63
2022-10-06T15:32:06.572Z,2.92
2022-10-06T15:34:37.662Z,3.27
2022-10-06T15:37:06.988Z,3.33
2022-10-06T15:39:37.395Z,2.40
2022-10-06T15:42:06.664Z,5.28
2022-10-06T15:44:35.712Z,6.13
2022-10-06T15:47:07.219Z,5.15
2022-10-06T15:49:40.544Z,5.30
2022-10-06T15:52:12.286Z,3.63
2022-10-06T15:54:42.443Z,10.75
2022-10-06T15:57:17.924Z,9.07
2022-10-06T15:59:48.373Z,5.75
2022-10-06T16:02:20.185Z,5.68
2022-10-06T16:05:16.713Z,5.32
2022-10-06T16:07:45.396Z,8.00
2022-10-06T16:10:14.060Z,7.10
2022-10-06T16:12:42.717Z,4.45
2022-10-06T16:15:11.960Z,5.50
2022-10-06T16:17:42.409Z,5.20
2022-10-06T16:20:11.706Z,9.75
2022-10-06T16:22:40.819Z,9.70
2022-10-06T16:25:10.306Z,10.30
2022-10-06T16:27:39.473Z,8.38
2022-10-06T16:30:09.709Z,7.47
2022-10-06T16:32:38.377Z,9.70
2022-10-06T16:35:11.020Z,8.77
2022-10-06T16:37:44.394Z,6.15
2022-10-06T16:40:13.008Z,8.48
2022-10-06T16:42:43.382Z,15.05
2022-10-06T16:45:14.680Z,26.40
2022-10-06T16:47:43.352Z,21.75
2022-10-06T16:50:13.336Z,12.02
2022-10-06T16:52:42.055Z,7.82
2022-10-06T16:55:10.566Z,8.80
2022-10-06T16:57:39.313Z,12.65
2022-10-06T17:00:08.957Z,7.75
2022-10-06T17:02:38.771Z,10.73
2022-10-06T17:05:08.088Z,11.40
2022-10-06T17:07:38.137Z,13.43
2022-10-06T17:10:20.129Z,6.40
2022-10-06T17:12:49.685Z,8.93
2022-10-06T17:15:18.507Z,8.65
2022-10-06T17:17:47.047Z,14.07
2022-10-06T17:20:15.778Z,12.38
2022-10-06T17:22:45.859Z,14.80
2022-10-06T17:25:15.356Z,12.90
2022-10-06T17:27:44.000Z,13.15
2022-10-06T17:30:15.489Z,11.18
2022-10-06T17:32:47.018Z,10.10
2022-10-06T17:35:15.720Z,8.85
2022-10-06T17:37:45.952Z,5.88
2022-10-06T17:40:14.629Z,7.13
2022-10-06T17:42:43.636Z,6.97
2022-10-06T17:45:12.296Z,7.00
2022-10-06T17:47:41.584Z,9.15
2022-10-06T17:50:10.537Z,7.43
2022-10-06T17:52:39.465Z,6.53
2022-10-06T17:55:10.645Z,8.32
2022-10-06T17:57:40.111Z,6.10
2022-10-06T18:00:09.983Z,6.68
2022-10-06T18:02:40.569Z,6.15
2022-10-06T18:05:09.651Z,6.95
2022-10-06T18:07:38.540Z,10.82
2022-10-06T18:10:26.449Z,8.95
2022-10-06T18:12:55.176Z,8.48
2022-10-06T18:15:23.934Z,6.57
2022-10-06T18:17:52.602Z,6.22
2022-10-06T18:20:21.576Z,5.75
2022-10-06T18:22:50.345Z,5.80
2022-10-06T18:25:26.524Z,8.95
2022-10-06T18:27:56.203Z,11.38
2022-10-06T18:30:29.433Z,9.57
2022-10-06T18:35:08.683Z,9.23
2022-10-06T18:38:43.698Z,7.85
2022-10-06T18:41:16.270Z,10.48
2022-10-06T18:43:45.450Z,19.75
2022-10-06T18:46:32.998Z,39.75
2022-10-06T18:49:05.928Z,38.05
2022-10-06T18:51:36.657Z,24.63
2022-10-06T18:54:08.123Z,14.32
2022-10-06T18:56:39.160Z,8.60
2022-10-06T18:59:10.494Z,6.72
2022-10-06T19:01:41.297Z,7.53
2022-10-06T19:04:11.007Z,9.25
2022-10-06T19:06:42.479Z,6.70
2022-10-06T19:09:13.939Z,9.02
2022-10-06T19:11:51.923Z,8.00
2022-10-06T19:14:22.512Z,6.30
2022-10-06T19:16:54.440Z,7.10
2022-10-06T19:19:25.930Z,8.50
2022-10-06T19:21:59.569Z,8.27
2022-10-06T19:24:31.236Z,8.98
2022-10-06T19:27:01.738Z,14.95
2022-10-06T19:29:36.855Z,17.67
2022-10-06T19:32:07.575Z,13.65
2022-10-06T19:34:38.369Z,11.20
2022-10-06T19:37:08.096Z,7.70
2022-10-06T19:39:42.781Z,11.48
2022-10-06T19:42:30.917Z,22.00
2022-10-06T19:44:59.532Z,12.95
2022-10-06T19:47:28.668Z,10.80
2022-10-06T19:50:02.097Z,8.48
2022-10-06T19:55:01.304Z,8.15
2022-10-06T19:57:32.703Z,7.10
2022-10-06T20:00:01.262Z,6.53
2022-10-06T20:02:30.116Z,5.50
2022-10-06T20:04:58.668Z,6.03
2022-10-06T20:07:27.967Z,6.18
2022-10-06T20:09:56.824Z,5.85
2022-10-06T20:12:26.983Z,7.22
2022-10-06T20:14:57.584Z,7.22
2022-10-06T20:17:26.391Z,6.30
2022-10-06T20:19:57.799Z,7.50
2022-10-06T20:22:26.766Z,6.88
2022-10-06T20:24:55.358Z,5.65
2022-10-06T20:27:23.936Z,6.38
2022-10-06T20:29:53.039Z,6.35
2022-10-06T20:32:23.214Z,6.70
2022-10-06T20:34:51.748Z,6.93
2022-10-06T20:37:20.329Z,5.50
2022-10-06T20:40:05.271Z,6.85
2022-10-06T20:42:33.810Z,5.75
2022-10-06T20:45:02.277Z,12.02
2022-10-06T20:47:32.419Z,8.60
2022-10-06T20:50:00.988Z,6.45
2022-10-06T20:52:30.238Z,6.40
2022-10-06T20:54:58.766Z,6.38
2022-10-06T20:57:33.494Z,6.57
2022-10-06T21:00:02.385Z,12.70
2022-10-06T21:02:33.303Z,9.73
2022-10-06T21:05:02.286Z,6.53
2022-10-06T21:07:30.793Z,12.95
2022-10-06T21:09:59.439Z,5.07
2022-10-06T21:12:28.481Z,4.85
2022-10-06T21:14:57.466Z,4.47
2022-10-06T21:17:25.925Z,4.70
2022-10-06T21:19:55.806Z,9.27
2022-10-06T21:22:24.294Z,12.18
2022-10-06T21:24:52.814Z,14.27
2022-10-06T21:27:21.349Z,16.17
2022-10-06T21:29:50.085Z,21.17
2022-10-06T21:32:18.601Z,10.90
2022-10-06T21:34:47.593Z,6.55
2022-10-06T21:37:17.847Z,6.18
2022-10-06T21:39:46.298Z,5.45
2022-10-06T21:42:14.769Z,4.82
2022-10-06T21:44:43.265Z,5.03
2022-10-06T21:47:13.755Z,5.63
2022-10-06T21:49:44.342Z,4.80
2022-10-06T21:52:14.451Z,4.82
2022-10-06T21:54:44.918Z,4.70
2022-10-06T21:57:15.413Z,4.85
2022-10-06T21:59:43.902Z,5.78
2022-10-06T22:02:12.425Z,6.18
2022-10-06T22:04:41.813Z,6.22
2022-10-06T22:07:10.298Z,6.55
2022-10-06T22:09:38.798Z,6.32
2022-10-06T22:12:08.647Z,6.40
2022-10-06T22:14:37.151Z,6.32
2022-10-06T22:17:05.627Z,5.10
2022-10-06T22:19:34.222Z,5.55
2022-10-06T22:22:02.723Z,8.38
2022-10-06T22:24:31.226Z,8.45
2022-10-06T22:26:59.843Z,5.82
2022-10-06T22:29:29.878Z,6.50
2022-10-06T22:31:58.811Z,7.13
2022-10-06T22:34:28.500Z,6.10
2022-10-06T22:36:56.977Z,5.95
2022-10-06T22:39:25.450Z,5.93
2022-10-06T22:41:53.895Z,5.50
2022-10-06T22:44:22.351Z,5.57
2022-10-06T22:46:52.272Z,5.45
2022-10-06T22:49:20.966Z,5.32
2022-10-06T22:51:49.490Z,5.43
2022-10-06T22:54:22.157Z,5.32
2022-10-06T22:56:50.642Z,5.78
2022-10-06T22:59:19.086Z,5.70
2022-10-06T23:01:47.550Z,5.60
2022-10-06T23:04:17.915Z,5.25
2022-10-06T23:06:46.396Z,5.38
2022-10-06T23:09:15.095Z,5.22
2022-10-06T23:11:43.559Z,5.03
2022-10-06T23:14:12.041Z,5.22
2022-10-06T23:16:40.588Z,4.72
2022-10-06T23:19:09.088Z,4.47
2022-10-06T23:21:40.251Z,4.32
2022-10-06T23:24:08.818Z,4.47
2022-10-06T23:26:37.314Z,4.50
2022-10-06T23:29:07.244Z,4.50
2022-10-06T23:31:35.775Z,4.70
2022-10-06T23:34:04.329Z,4.93
2022-10-06T23:36:32.858Z,4.93
2022-10-06T23:39:02.758Z,4.72
2022-10-06T23:41:31.255Z,4.97
2022-10-06T23:43:59.822Z,4.88
2022-10-06T23:46:28.284Z,5.25
2022-10-06T23:48:56.737Z,5.25
2022-10-06T23:51:25.240Z,5.45
2022-10-06T23:53:53.962Z,5.70
2022-10-06T23:56:23.894Z,5.93
2022-10-06T23:58:52.395Z,5.75
